createdAt,value
2017-09-13T00:00:30.313Z,12.40
2017-09-13T00:02:57.806Z,12.26
2017-09-13T00:05:25.336Z,12.19
2017-09-13T00:07:52.781Z,12.45
2017-09-13T00:10:20.254Z,12.55
2017-09-13T00:12:47.729Z,12.62
2017-09-13T00:15:19.379Z,12.67
2017-09-13T00:17:46.810Z,12.88
2017-09-13T00:20:14.479Z,13.02
2017-09-13T00:22:41.909Z,13.10
2017-09-13T00:25:09.384Z,13.24
2017-09-13T00:27:36.830Z,13.33
2017-09-13T00:30:04.267Z,13.40
2017-09-13T00:32:31.785Z,13.52
2017-09-13T00:34:59.232Z,13.45
2017-09-13T00:37:26.693Z,13.60
2017-09-13T00:39:54.142Z,13.55
2017-09-13T00:42:21.621Z,14.00
2017-09-13T00:44:49.055Z,13.72
2017-09-13T00:47:16.531Z,13.77
2017-09-13T00:49:43.966Z,13.80
2017-09-13T00:52:11.430Z,13.70
2017-09-13T00:54:38.995Z,13.59
2017-09-13T00:57:06.462Z,13.57
2017-09-13T00:59:33.894Z,13.58
2017-09-13T01:02:01.373Z,13.60
2017-09-13T01:04:28.819Z,13.54
2017-09-13T01:06:56.429Z,13.64
2017-09-13T01:09:23.877Z,13.58
2017-09-13T01:11:51.338Z,13.49
2017-09-13T01:14:18.783Z,13.64
2017-09-13T01:16:46.298Z,13.49
2017-09-13T01:19:13.740Z,13.53
2017-09-13T01:21:41.189Z,13.62
2017-09-13T01:24:08.646Z,13.54
2017-09-13T01:26:36.097Z,13.78
2017-09-13T01:29:03.559Z,13.68
2017-09-13T01:31:30.999Z,13.66
2017-09-13T01:33:58.515Z,13.63
2017-09-13T01:36:25.959Z,13.74
2017-09-13T01:38:53.422Z,13.77
2017-09-13T01:41:20.864Z,13.77
2017-09-13T01:43:48.315Z,13.66
2017-09-13T01:46:15.759Z,13.78
2017-09-13T01:48:43.325Z,13.89
2017-09-13T01:51:10.765Z,13.83
2017-09-13T01:53:38.317Z,13.80
2017-09-13T01:56:05.811Z,13.85
2017-09-13T01:58:33.276Z,13.91
2017-09-13T02:01:00.809Z,14.03
2017-09-13T02:03:28.279Z,13.97
2017-09-13T02:05:55.923Z,14.01
2017-09-13T02:08:23.463Z,13.98
2017-09-13T02:10:50.908Z,13.95
2017-09-13T02:13:18.342Z,14.04
2017-09-13T02:15:45.809Z,14.01
2017-09-13T02:18:13.288Z,13.98
2017-09-13T02:20:40.760Z,13.96
2017-09-13T02:23:08.208Z,13.83
2017-09-13T02:25:35.662Z,14.06
2017-09-13T02:28:03.156Z,14.09
2017-09-13T02:30:30.623Z,13.93
2017-09-13T02:32:58.153Z,14.11
2017-09-13T02:35:25.728Z,14.05
2017-09-13T02:37:53.167Z,14.13
2017-09-13T02:40:20.736Z,14.05
2017-09-13T02:42:48.212Z,14.03
2017-09-13T02:45:15.646Z,14.23
2017-09-13T02:47:43.118Z,14.13
2017-09-13T02:50:10.570Z,14.23
2017-09-13T02:52:38.097Z,14.25
2017-09-13T02:55:05.531Z,14.17
2017-09-13T02:57:33.024Z,14.07
2017-09-13T03:00:00.452Z,14.09
2017-09-13T03:02:27.903Z,14.16
2017-09-13T03:04:55.361Z,14.14
2017-09-13T03:07:22.842Z,14.25
2017-09-13T03:09:50.368Z,14.31
2017-09-13T03:12:17.858Z,14.35
2017-09-13T03:14:45.298Z,14.41
2017-09-13T03:17:12.733Z,14.45
2017-09-13T03:19:40.191Z,14.48
2017-09-13T03:22:07.694Z,14.57
2017-09-13T03:24:35.160Z,14.62
2017-09-13T03:27:02.736Z,14.68
2017-09-13T03:29:30.273Z,14.77
2017-09-13T03:31:57.707Z,14.80
2017-09-13T03:34:25.156Z,14.83
2017-09-13T03:36:52.598Z,14.80
2017-09-13T03:39:20.303Z,14.84
2017-09-13T03:41:47.759Z,14.75
2017-09-13T03:44:15.225Z,14.95
2017-09-13T03:46:42.714Z,14.81
2017-09-13T03:49:10.174Z,14.78
2017-09-13T03:51:37.872Z,14.79
2017-09-13T03:54:05.329Z,14.70
2017-09-13T03:56:32.796Z,14.82
2017-09-13T03:59:00.226Z,14.88
2017-09-13T04:01:27.703Z,14.96
2017-09-13T04:03:55.144Z,14.91
2017-09-13T04:06:22.606Z,15.06
2017-09-13T04:08:50.152Z,14.94
2017-09-13T04:11:17.609Z,14.94
2017-09-13T04:13:45.037Z,14.90
2017-09-13T04:16:12.514Z,14.94
2017-09-13T04:18:40.038Z,14.95
2017-09-13T04:21:07.509Z,14.92
2017-09-13T04:23:34.942Z,15.08
2017-09-13T04:26:02.374Z,15.06
2017-09-13T04:28:29.860Z,15.14
2017-09-13T04:30:57.407Z,14.91
2017-09-13T04:33:24.966Z,14.76
2017-09-13T04:35:52.411Z,14.69
2017-09-13T04:38:19.910Z,14.72
2017-09-13T04:40:47.367Z,14.84
2017-09-13T04:43:14.855Z,14.73
2017-09-13T04:45:42.307Z,14.79
2017-09-13T04:48:09.795Z,14.65
2017-09-13T04:50:37.230Z,14.72
2017-09-13T04:53:04.767Z,14.74
2017-09-13T04:55:32.203Z,14.55
2017-09-13T04:57:59.697Z,14.72
2017-09-13T05:00:27.125Z,14.63
2017-09-13T05:02:54.664Z,14.65
2017-09-13T05:05:22.107Z,14.42
2017-09-13T05:07:49.575Z,14.43
2017-09-13T05:10:17.065Z,14.48
2017-09-13T05:12:44.563Z,14.52
2017-09-13T05:15:12.055Z,14.55
2017-09-13T05:17:39.598Z,14.36
2017-09-13T05:20:07.148Z,14.45
2017-09-13T05:22:34.585Z,14.45
2017-09-13T05:25:02.105Z,14.45
2017-09-13T05:27:29.532Z,14.40
2017-09-13T05:29:57.070Z,14.34
2017-09-13T05:32:24.511Z,14.39
2017-09-13T05:34:51.969Z,14.54
2017-09-13T05:37:19.401Z,14.52
2017-09-13T05:39:46.853Z,14.50
2017-09-13T05:42:14.316Z,14.45
2017-09-13T05:44:41.774Z,14.58
2017-09-13T05:47:09.205Z,14.37
2017-09-13T05:49:36.658Z,14.59
2017-09-13T05:52:04.104Z,14.56
2017-09-13T05:54:31.583Z,14.62
2017-09-13T05:56:59.035Z,14.47
2017-09-13T05:59:26.574Z,14.30
2017-09-13T06:01:54.253Z,14.35
2017-09-13T06:04:21.730Z,14.49
2017-09-13T06:06:49.195Z,14.50
2017-09-13T06:09:16.650Z,14.62
2017-09-13T06:11:44.091Z,14.89
2017-09-13T06:14:11.756Z,14.67
2017-09-13T06:16:39.223Z,14.72
2017-09-13T06:19:06.721Z,14.65
2017-09-13T06:21:34.174Z,14.49
2017-09-13T06:24:01.601Z,14.66
2017-09-13T06:26:29.077Z,14.68
2017-09-13T06:28:56.510Z,14.76
2017-09-13T06:31:23.991Z,14.68
2017-09-13T06:33:51.440Z,14.62
2017-09-13T06:36:18.904Z,14.69
2017-09-13T06:38:46.363Z,14.80
2017-09-13T06:41:13.817Z,14.72
2017-09-13T06:43:41.256Z,14.63
2017-09-13T06:46:08.710Z,14.75
2017-09-13T06:48:36.144Z,14.67
2017-09-13T06:51:03.620Z,14.73
2017-09-13T06:53:31.085Z,14.77
2017-09-13T06:55:58.559Z,14.75
2017-09-13T06:58:25.994Z,14.89
2017-09-13T07:00:53.537Z,14.97
2017-09-13T07:03:20.974Z,14.89
2017-09-13T07:05:48.495Z,15.03
2017-09-13T07:08:15.934Z,14.80
2017-09-13T07:10:43.399Z,14.94
2017-09-13T07:13:12.327Z,15.01
2017-09-13T07:15:39.789Z,15.10
2017-09-13T07:18:08.126Z,15.09
2017-09-13T07:20:35.598Z,14.94
2017-09-13T07:23:03.043Z,15.08
2017-09-13T07:25:30.480Z,15.11
2017-09-13T07:27:57.948Z,15.28
2017-09-13T07:30:25.404Z,15.24
2017-09-13T07:32:52.871Z,15.24
2017-09-13T07:35:20.311Z,15.21
2017-09-13T07:37:47.762Z,15.22
2017-09-13T07:40:15.198Z,15.21
2017-09-13T07:42:42.697Z,15.19
2017-09-13T07:45:10.153Z,15.22
2017-09-13T07:47:37.724Z,15.31
2017-09-13T07:50:05.161Z,15.32
2017-09-13T07:52:32.647Z,15.43
2017-09-13T07:55:00.083Z,15.61
2017-09-13T07:57:27.557Z,15.61
2017-09-13T07:59:55.134Z,15.57
2017-09-13T08:02:22.585Z,15.61
2017-09-13T08:04:50.102Z,15.88
2017-09-13T08:07:17.548Z,15.73
2017-09-13T08:09:45.006Z,15.70
2017-09-13T08:12:12.577Z,15.73
2017-09-13T08:14:40.054Z,15.82
2017-09-13T08:17:07.502Z,15.84
2017-09-13T08:19:34.968Z,15.85
2017-09-13T08:22:02.431Z,15.82
2017-09-13T08:24:29.891Z,15.87
2017-09-13T08:26:57.330Z,15.99
2017-09-13T08:29:24.787Z,16.00
2017-09-13T08:31:52.226Z,15.89
2017-09-13T08:34:19.694Z,15.86
2017-09-13T08:36:47.152Z,15.92
2017-09-13T08:39:14.595Z,15.95
2017-09-13T08:41:42.095Z,15.96
2017-09-13T08:44:09.522Z,16.04
2017-09-13T08:46:36.987Z,15.86
2017-09-13T08:49:04.541Z,15.96
2017-09-13T08:51:31.998Z,15.91
2017-09-13T08:53:59.459Z,15.96
2017-09-13T08:56:26.939Z,16.02
2017-09-13T08:58:54.456Z,16.05
2017-09-13T09:01:21.920Z,16.23
2017-09-13T09:03:49.355Z,16.26
2017-09-13T09:06:16.815Z,16.20
2017-09-13T09:08:44.252Z,16.20
2017-09-13T09:11:11.740Z,16.43
2017-09-13T09:13:39.169Z,16.26
2017-09-13T09:16:06.647Z,16.34
2017-09-13T09:18:34.107Z,16.22
2017-09-13T09:21:01.546Z,16.39
2017-09-13T09:23:28.997Z,16.41
2017-09-13T09:25:56.519Z,16.45
2017-09-13T09:28:23.995Z,16.44
2017-09-13T09:30:51.432Z,16.61
2017-09-13T09:33:18.943Z,16.50
2017-09-13T09:35:46.392Z,16.53
2017-09-13T09:38:13.846Z,16.59
2017-09-13T09:40:41.287Z,16.49
2017-09-13T09:43:08.780Z,16.51
2017-09-13T09:45:36.469Z,16.49
2017-09-13T09:48:03.953Z,16.50
2017-09-13T09:50:31.411Z,16.71
2017-09-13T09:52:58.863Z,16.58
2017-09-13T09:55:26.344Z,16.58
2017-09-13T09:57:53.847Z,16.63
2017-09-13T10:00:21.301Z,16.61
2017-09-13T10:02:48.771Z,16.56
2017-09-13T10:05:16.237Z,16.64
2017-09-13T10:07:43.755Z,16.80
2017-09-13T10:10:11.228Z,16.67
2017-09-13T10:12:38.667Z,16.59
2017-09-13T10:15:06.133Z,16.69
2017-09-13T10:17:33.710Z,16.92
2017-09-13T10:20:01.229Z,16.97
2017-09-13T10:22:28.671Z,17.14
2017-09-13T10:24:56.122Z,17.25
2017-09-13T10:27:23.611Z,17.39
2017-09-13T10:29:51.215Z,17.53
2017-09-13T10:32:19.343Z,17.54
2017-09-13T10:34:46.812Z,17.57
2017-09-13T10:37:14.313Z,17.56
2017-09-13T10:39:41.779Z,17.60
2017-09-13T10:42:09.297Z,17.55
2017-09-13T10:44:37.097Z,17.67
2017-09-13T10:47:04.599Z,17.61
2017-09-13T10:49:32.156Z,17.66
2017-09-13T10:51:59.614Z,17.51
2017-09-13T10:54:27.070Z,17.67
2017-09-13T10:56:54.985Z,17.88
2017-09-13T10:59:22.440Z,18.02
2017-09-13T11:01:49.903Z,18.16
2017-09-13T11:04:17.403Z,18.30
2017-09-13T11:06:44.888Z,18.28
2017-09-13T11:09:12.372Z,18.37
2017-09-13T11:11:39.838Z,18.57
2017-09-13T11:14:07.278Z,18.35
2017-09-13T11:16:34.742Z,18.35
2017-09-13T11:19:02.238Z,18.55
2017-09-13T11:21:29.692Z,18.71
2017-09-13T11:23:57.127Z,18.82
2017-09-13T11:26:24.601Z,18.88
2017-09-13T11:28:52.067Z,19.09
2017-09-13T11:31:19.535Z,19.29
2017-09-13T11:33:46.966Z,19.59
2017-09-13T11:36:14.444Z,19.71
2017-09-13T11:38:41.890Z,19.61
2017-09-13T11:41:09.396Z,19.81
2017-09-13T11:43:36.843Z,19.90
2017-09-13T11:46:04.338Z,19.89
2017-09-13T11:48:31.794Z,19.98
2017-09-13T11:50:59.286Z,20.07
2017-09-13T11:53:27.286Z,20.32
2017-09-13T11:55:54.859Z,20.51
2017-09-13T11:58:22.362Z,20.58
2017-09-13T12:00:49.815Z,20.61
2017-09-13T12:03:17.280Z,20.75
2017-09-13T12:05:44.713Z,20.75
2017-09-13T12:08:12.451Z,20.75
2017-09-13T12:10:39.939Z,20.66
2017-09-13T12:13:07.418Z,20.83
2017-09-13T12:15:34.981Z,20.88
2017-09-13T12:18:02.533Z,20.93
2017-09-13T12:20:29.965Z,20.96
2017-09-13T12:22:57.438Z,20.88
2017-09-13T12:25:24.905Z,20.95
2017-09-13T12:27:52.352Z,20.68
2017-09-13T12:30:19.839Z,20.58
2017-09-13T12:32:47.308Z,20.48
2017-09-13T12:35:14.772Z,20.50
2017-09-13T12:37:42.205Z,20.62
2017-09-13T12:40:09.665Z,20.40
2017-09-13T12:42:37.108Z,20.44
2017-09-13T12:45:04.576Z,20.50
2017-09-13T12:47:32.108Z,20.65
2017-09-13T12:49:59.567Z,20.92
2017-09-13T12:52:27.001Z,20.98
2017-09-13T12:54:54.474Z,21.05
2017-09-13T12:57:22.031Z,20.98
2017-09-13T12:59:49.495Z,20.97
2017-09-13T13:02:16.951Z,21.14
2017-09-13T13:04:44.429Z,21.12
2017-09-13T13:07:11.984Z,21.42
2017-09-13T13:09:39.584Z,21.21
2017-09-13T13:12:07.073Z,21.37
2017-09-13T13:14:34.519Z,21.29
2017-09-13T13:17:02.004Z,21.17
2017-09-13T13:19:29.438Z,21.19
2017-09-13T13:21:56.903Z,21.27
2017-09-13T13:24:24.334Z,21.28
2017-09-13T13:26:51.823Z,21.30
2017-09-13T13:29:19.280Z,21.30
2017-09-13T13:31:46.748Z,21.24
2017-09-13T13:34:14.299Z,21.26
2017-09-13T13:36:41.863Z,21.27
2017-09-13T13:39:09.302Z,21.33
2017-09-13T13:41:36.876Z,21.17
2017-09-13T13:44:04.664Z,21.23
2017-09-13T13:46:32.146Z,21.48
2017-09-13T13:48:59.637Z,21.19
2017-09-13T13:51:27.219Z,21.32
2017-09-13T13:53:54.757Z,21.29
2017-09-13T13:56:22.198Z,21.41
2017-09-13T13:58:49.663Z,21.45
2017-09-13T14:01:17.132Z,21.70
2017-09-13T14:03:44.625Z,21.78
2017-09-13T14:06:12.066Z,21.57
2017-09-13T14:08:39.532Z,21.50
2017-09-13T14:11:06.978Z,21.45
2017-09-13T14:13:34.469Z,21.70
2017-09-13T14:16:01.915Z,21.65
2017-09-13T14:18:29.392Z,21.62
2017-09-13T14:20:56.883Z,21.51
2017-09-13T14:23:24.351Z,21.29
2017-09-13T14:25:51.782Z,20.97
2017-09-13T14:28:19.242Z,20.92
2017-09-13T14:30:46.819Z,20.90
2017-09-13T14:33:14.308Z,20.64
2017-09-13T14:35:41.759Z,20.57
2017-09-13T14:38:09.294Z,20.68
2017-09-13T14:40:36.726Z,20.47
2017-09-13T14:43:04.408Z,20.20
2017-09-13T14:45:31.860Z,20.10
2017-09-13T14:47:59.290Z,19.81
2017-09-13T14:50:26.745Z,19.62
2017-09-13T14:52:54.246Z,19.47
2017-09-13T14:55:21.925Z,19.37
2017-09-13T14:57:49.358Z,19.27
2017-09-13T15:00:16.923Z,19.35
2017-09-13T15:02:44.467Z,19.03
2017-09-13T15:05:12.021Z,19.20
2017-09-13T15:07:39.466Z,19.00
2017-09-13T15:10:06.926Z,18.88
2017-09-13T15:12:34.368Z,18.88
2017-09-13T15:15:01.836Z,18.75
2017-09-13T15:17:29.313Z,18.75
2017-09-13T15:19:56.852Z,18.45
2017-09-13T15:22:24.318Z,18.46
2017-09-13T15:24:51.788Z,18.54
2017-09-13T15:27:19.235Z,18.37
2017-09-13T15:29:46.801Z,18.30
2017-09-13T15:32:14.267Z,18.12
2017-09-13T15:34:41.802Z,18.09
2017-09-13T15:37:09.258Z,18.00
2017-09-13T15:39:36.705Z,17.90
2017-09-13T15:42:04.299Z,18.02
2017-09-13T15:44:31.733Z,17.80
2017-09-13T15:46:59.200Z,17.76
2017-09-13T15:49:26.646Z,17.73
2017-09-13T15:51:54.107Z,17.55
2017-09-13T15:54:21.571Z,17.58
2017-09-13T15:56:49.041Z,17.57
2017-09-13T15:59:16.508Z,17.40
2017-09-13T16:01:44.014Z,17.16
2017-09-13T16:04:11.490Z,17.03
2017-09-13T16:06:38.981Z,17.15
2017-09-13T16:09:06.442Z,17.05
2017-09-13T16:11:33.911Z,17.02
2017-09-13T16:14:01.356Z,17.03
2017-09-13T16:16:28.831Z,17.01
2017-09-13T16:18:56.269Z,16.99
2017-09-13T16:21:23.737Z,16.97
2017-09-13T16:23:51.182Z,17.12
2017-09-13T16:26:18.625Z,17.16
2017-09-13T16:28:46.091Z,16.91
2017-09-13T16:31:13.522Z,16.85
2017-09-13T16:33:40.989Z,16.98
2017-09-13T16:36:08.517Z,16.68
2017-09-13T16:38:35.990Z,16.52
2017-09-13T16:41:03.432Z,16.34
2017-09-13T16:43:30.885Z,16.23
2017-09-13T16:45:58.470Z,16.08
2017-09-13T16:48:25.938Z,15.93
2017-09-13T16:50:53.607Z,15.87
2017-09-13T16:53:21.076Z,15.86
2017-09-13T16:55:48.516Z,15.75
2017-09-13T16:58:16.049Z,15.82
2017-09-13T17:00:43.486Z,15.82
2017-09-13T17:03:10.949Z,15.58
2017-09-13T17:05:38.839Z,15.60
2017-09-13T17:08:06.340Z,15.25
2017-09-13T17:10:33.782Z,15.37
2017-09-13T17:13:01.290Z,15.27
2017-09-13T17:15:28.718Z,15.47
2017-09-13T17:17:57.260Z,15.22
2017-09-13T17:20:24.727Z,15.26
2017-09-13T17:22:52.207Z,14.99
2017-09-13T17:25:19.711Z,15.00
2017-09-13T17:27:47.179Z,14.86
2017-09-13T17:30:14.744Z,15.01
2017-09-13T17:32:42.284Z,15.00
2017-09-13T17:35:09.730Z,15.25
2017-09-13T17:37:37.172Z,15.04
2017-09-13T17:40:04.636Z,15.06
2017-09-13T17:42:32.070Z,15.14
2017-09-13T17:44:59.529Z,15.04
2017-09-13T17:47:26.962Z,15.02
2017-09-13T17:49:54.440Z,14.83
2017-09-13T17:52:21.913Z,14.79
2017-09-13T17:54:49.375Z,14.79
2017-09-13T17:57:16.806Z,14.76
2017-09-13T17:59:44.298Z,14.87
2017-09-13T18:02:11.765Z,14.67
2017-09-13T18:04:39.241Z,14.79
2017-09-13T18:07:06.673Z,14.69
2017-09-13T18:09:34.234Z,15.01
2017-09-13T18:12:01.662Z,14.85
2017-09-13T18:14:29.118Z,14.84
2017-09-13T18:16:56.563Z,14.84
2017-09-13T18:19:24.046Z,14.87
2017-09-13T18:21:51.502Z,14.79
2017-09-13T18:24:18.953Z,14.72
2017-09-13T18:26:46.398Z,14.77
2017-09-13T18:29:14.227Z,14.62
2017-09-13T18:31:41.738Z,14.64
2017-09-13T18:34:09.199Z,14.41
2017-09-13T18:36:36.631Z,14.56
2017-09-13T18:39:04.070Z,14.58
2017-09-13T18:41:31.587Z,14.63
2017-09-13T18:43:59.043Z,14.50
2017-09-13T18:46:26.511Z,14.55
2017-09-13T18:48:53.942Z,14.67
2017-09-13T18:51:21.430Z,14.72
2017-09-13T18:53:48.873Z,14.62
2017-09-13T18:56:16.439Z,14.58
2017-09-13T18:58:43.966Z,14.55
2017-09-13T19:01:11.421Z,14.41
2017-09-13T19:03:38.889Z,14.60
2017-09-13T19:06:06.343Z,14.64
2017-09-13T19:08:33.783Z,14.46
2017-09-13T19:11:01.255Z,14.74
2017-09-13T19:13:28.694Z,14.45
2017-09-13T19:15:56.422Z,14.37
2017-09-13T19:18:23.924Z,14.49
2017-09-13T19:20:51.374Z,14.44
2017-09-13T19:23:18.844Z,14.57
2017-09-13T19:25:46.315Z,14.44
2017-09-13T19:28:13.818Z,14.51
2017-09-13T19:30:41.305Z,14.33
2017-09-13T19:33:08.762Z,14.33
2017-09-13T19:35:36.241Z,14.34
2017-09-13T19:38:03.731Z,14.31
2017-09-13T19:40:31.248Z,14.33
2017-09-13T19:42:58.738Z,14.31
2017-09-13T19:45:26.180Z,14.26
2017-09-13T19:47:53.732Z,14.33
2017-09-13T19:50:21.187Z,14.35
2017-09-13T19:52:48.688Z,14.24
2017-09-13T19:55:16.187Z,14.27
2017-09-13T19:57:43.752Z,14.39
2017-09-13T20:00:11.198Z,14.37
2017-09-13T20:02:38.662Z,14.55
2017-09-13T20:05:06.128Z,14.46
2017-09-13T20:07:33.589Z,14.42
2017-09-13T20:10:01.045Z,14.43
2017-09-13T20:12:28.579Z,14.44
2017-09-13T20:14:56.049Z,14.39
2017-09-13T20:17:23.503Z,14.51
2017-09-13T20:19:50.966Z,14.46
2017-09-13T20:22:18.535Z,14.31
2017-09-13T20:24:46.075Z,14.26
2017-09-13T20:27:13.821Z,14.32
2017-09-13T20:29:41.252Z,14.37
2017-09-13T20:32:08.767Z,14.38
2017-09-13T20:34:36.311Z,14.27
2017-09-13T20:37:03.773Z,14.42
2017-09-13T20:39:31.224Z,14.47
2017-09-13T20:41:58.689Z,14.99
2017-09-13T20:44:26.132Z,14.61
2017-09-13T20:46:53.587Z,14.42
2017-09-13T20:49:21.106Z,14.36
2017-09-13T20:51:48.533Z,14.45
2017-09-13T20:54:16.011Z,14.85
2017-09-13T20:56:43.457Z,14.52
2017-09-13T20:59:10.929Z,14.55
2017-09-13T21:01:38.371Z,14.58
2017-09-13T21:04:05.839Z,14.57
2017-09-13T21:06:33.352Z,14.56
2017-09-13T21:09:00.825Z,14.40
2017-09-13T21:11:28.362Z,14.40
2017-09-13T21:13:55.924Z,14.33
2017-09-13T21:16:23.381Z,14.21
2017-09-13T21:18:50.837Z,14.28
2017-09-13T21:21:18.274Z,14.29
2017-09-13T21:23:45.745Z,14.38
2017-09-13T21:26:13.209Z,14.32
2017-09-13T21:28:40.684Z,14.30
2017-09-13T21:31:08.129Z,14.32
2017-09-13T21:33:35.609Z,14.46
2017-09-13T21:36:03.128Z,14.32
2017-09-13T21:38:30.588Z,14.34
2017-09-13T21:40:58.046Z,14.30
2017-09-13T21:43:25.511Z,14.32
2017-09-13T21:45:53.065Z,14.20
2017-09-13T21:48:20.527Z,14.29
2017-09-13T21:50:48.079Z,14.24
2017-09-13T21:53:15.554Z,14.31
2017-09-13T21:55:43.008Z,14.44
2017-09-13T21:58:10.468Z,14.43
2017-09-13T22:00:38.206Z,14.35
2017-09-13T22:03:05.672Z,14.40
2017-09-13T22:05:33.114Z,14.42
2017-09-13T22:08:00.647Z,14.48
2017-09-13T22:10:28.140Z,14.41
2017-09-13T22:12:55.726Z,14.49
2017-09-13T22:15:23.158Z,14.46
2017-09-13T22:17:50.623Z,14.39
2017-09-13T22:20:18.062Z,14.40
2017-09-13T22:22:45.515Z,14.36
2017-09-13T22:25:12.980Z,14.41
2017-09-13T22:27:40.417Z,14.36
2017-09-13T22:30:07.879Z,14.37
2017-09-13T22:32:35.317Z,14.47
2017-09-13T22:35:02.788Z,14.37
2017-09-13T22:37:30.276Z,14.48
2017-09-13T22:39:57.767Z,14.47
2017-09-13T22:42:25.225Z,14.42
2017-09-13T22:44:52.711Z,14.40
2017-09-13T22:47:21.304Z,14.50
2017-09-13T22:49:48.784Z,14.41
2017-09-13T22:52:16.322Z,14.47
2017-09-13T22:54:43.778Z,14.84
2017-09-13T22:57:11.234Z,14.64
2017-09-13T22:59:38.696Z,14.55
2017-09-13T23:02:06.153Z,14.56
2017-09-13T23:04:33.617Z,14.64
2017-09-13T23:07:01.070Z,14.46
2017-09-13T23:09:28.630Z,14.38
2017-09-13T23:11:56.198Z,14.49
2017-09-13T23:14:23.666Z,14.39
2017-09-13T23:16:51.096Z,14.38
2017-09-13T23:19:18.546Z,14.33
2017-09-13T23:21:45.983Z,14.31
2017-09-13T23:24:13.438Z,14.40
2017-09-13T23:26:40.872Z,14.38
2017-09-13T23:29:08.336Z,14.31
2017-09-13T23:31:35.836Z,14.44
2017-09-13T23:34:03.291Z,14.36
2017-09-13T23:36:30.851Z,14.38
2017-09-13T23:38:58.320Z,14.44
2017-09-13T23:41:25.749Z,14.44
2017-09-13T23:43:53.323Z,14.38
2017-09-13T23:46:20.758Z,14.40
2017-09-13T23:48:48.222Z,14.42
2017-09-13T23:51:15.728Z,14.34
2017-09-13T23:53:43.186Z,14.44
2017-09-13T23:56:10.692Z,14.62
2017-09-13T23:58:38.168Z,14.48
